Chicago Bmc, Illinois
Current Conditions -  °F | °C
As of 9:08 AM on Monday 24 Nov 2014 (Local Time) from KORD Reporting Station
Moderate Rain Moderate Rain  
Wind Chill:   Ceiling: 1100
Heat Index:   Visibility: 2.5mi
Dew Point:   Wind: 18mph
Humidity: 89%   Direction: 270°W
Pressure: 29.14"   Gusts: 30mph
Location:  42.0275°N, 87.808°W
Report Text: KORD 241508Z 27016G26KT 2 1/2SM RA BR FEW008 BKN011 OVC035 05/03 A2914 RMK AO2 PK WND 26026/1503 P0002 T00500033
Loading
Personal Weather Stations






























Interactive Weather Map New forecast layout! Learn more

10-Day Weather Forecast

Advertisements
Track Severe Weather on mobile